Aérodrome :
LOGIN :

S'inscrire | Disclaimer

   EN    FR    IT 

 










Légende :    VFR   VFR Marginal   IFR   IFR Intensif   IFR Très Intensif
Visi : 
Plafond : 
>= 8 km
>= 3000ft
5 à 8 km
1000 à 3000 ft
1500m à 5 km
500 à 1000 ft
800 à 1500m
200 à 500 ft
< 800m
< 200 ft
Symboles :   Orages  Brouillard  Fortes neiges  Fortes précipitations  Vent > 20 kt
SIGMETs :   Divers  Orages  Givrage  Turbulence  Onde Orograph.  Cendres Volcan.






- Altitude de l'aérodrome : 622 ft
- Code IATA : BRS


EGGD - Bristol Int.

DERNIER METAR :
  • 250420Z AUTO 17003KT 9999 OVC010 05/03 Q1018

METARs EXPIRÉS :
  • 250350Z AUTO 16005KT 130V200 9999 OVC009 05/03 Q1019
  • 250320Z AUTO VRB03KT 9999 OVC011 05/03 Q1019
  • 250250Z AUTO 14002KT 9999 OVC012 05/03 Q1019
  • 250220Z AUTO 13001KT 9999 OVC014 05/04 Q1019
  • 250150Z AUTO 16003KT 5000 BR OVC014 05/04 Q1019

TAF AMD TAF EGGD
Valide du 25 à 00h jusqu'au 26 à 00h UTC


250031Z 2500/2524 VRB04KT 9999 FEW005 BKN020
TEMPO 2500/2509 7000 BKN012
TEMPO 2500/2503 4500 BR
PROB40
TEMPO 2500/2505 BKN003
BECMG 2509/2512 15010KT 4000 -DZ BKN003
TEMPO 2512/2524 1200 DZ BR OVC001
BECMG 2521/2524 6000 NSW
ATIS : +44 1275 473 666



MET'MAP, la Météo Aéronautique d'un coup d'oeil ! - Copyright ORBIFLY Décembre 2007 - Disclaimer

ORBIFLY MET'MAP TEAM :

Programmation & Développement : Alexandra Zaïnal
Sur une idée originale de : Baudouin d'Aumeries
Assistance à la programmation : Marc-Olivier Méhu
Soutien technique & logistique : Manuel Goepfert

Contact : metmap@orbifly.com




SOURCES & CREDITS :

   NOAA